Používaním stránok prevádzkovaných PROFIPILOT, s.r.o. súhlasíte s používaním cookies, ktoré nám pomáhajú zabezpečiť lepšie služby.OK

Briefing

MAPA | METAR | TAF | METEO SITUÁCIA
MAPA | METAR | TAF | METEO SITUÁCIA

Predpoveď na dnes

Slnečno a naďalej veľmi teplo. Najvyššia denná teplota 19 až 24 st., na Orave ojedinele chladnejšie. Teplota na horách vo výške 1500 m okolo 10 st. Slabý, postupne prevažne juhozápadný vietor 2 až 7 m/s (5 až 25 km/h). Predpokladané množstvo zrážok: bez zrážok

SHMÚ, OMPaV, MM 8.4.2020 04:58 LSEČ

MAPA | METAR | TAF | METEO SITUÁCIA

TAF - Letisková predpoveď

09.04.2020 - 05:00 UTC

TAF LZIB 090500Z 0906/1006 06004KT CAVOK
     BECMG 0910/0912 32006KT
     BECMG 1000/1002 VRB02KT=
 TAF LZKZ 090500Z 0906/1006 VRB02KT CAVOK
     BECMG 0909/0911 22010KT
     TEMPO 0911/0917 23015G27KT
     BECMG 0918/0920 02007KT
     PROB40 TEMPO 1002/1005 01018KT=
 TAF LZTT 090500Z 0906/1006 25006KT CAVOK
     TEMPO 0910/0916 27014KT
     BECMG 0922/1000 9999 FEW050 SCT080
     PROB30 TEMPO 1000/1006 -SHRA BKN060=
 

09.04.2020 - 05:00 UTC

TAF LZSL 090500Z 0906/0915 VRB02KT CAVOK
     BECMG 0910/0912 25009KT=
 TAF LZPP 090500Z 0906/0915 03004KT CAVOK
     BECMG 0908/0910 21009KT
     BECMG 0913/0915 31005KT=
 TAF LZZI 090500Z 0906/0915 VRB02KT CAVOK
     BECMG 0910/0912 22007KT=
 

09.04.2020 - 02:00 UTC

TAF LZSL 090200Z 0903/0912 VRB02KT CAVOK
     BECMG 0910/0912 25009KT=
 TAF LZZI 090200Z 0903/0912 VRB02KT CAVOK
     BECMG 0910/0912 22007KT=
 
MAPA | METAR | TAF | METEO SITUÁCIA

METAR - Letisková meteo správa

Letisková meteorologická správa METAR

Meteorologické informácie z ďalších profesionálnych meteorologických staníc SHMÚ zobrazené v tvare zodpovedajúcom pravidlám kódovania správ METAR sú uvedené v položke „METSYN Informácie o správe METAR

09.04.2020 - 07:00 UTC

METAR LZIB 090700Z 07005KT CAVOK 10/M03 Q1023 NOSIG=
 METAR LZKZ 090700Z VRB01KT CAVOK 12/M01 Q1022 NOSIG=
 METAR LZPP 090700Z 02005KT 350V060 CAVOK 09/M01 Q1023=
 METAR LZSL 090700Z /////KT CAVOK 06/M01 Q1024=
 METAR LZTT 090700Z 02003KT 340V060 CAVOK 11/M03 Q1023 NOSIG=
 METAR LZZI 090700Z 08004KT CAVOK 07/M01 Q1023=
 

09.04.2020 - 06:30 UTC

METAR LZIB 090630Z 04005KT CAVOK 09/M03 Q1023 NOSIG=
 METAR LZKZ 090630Z VRB01KT CAVOK 12/M01 Q1023 NOSIG=
 METAR LZPP 090630Z 01007KT CAVOK 07/M02 Q1023=
 METAR LZSL 090630Z /////KT CAVOK 04/M01 Q1024=
 METAR LZTT 090630Z 32004KT 280V040 CAVOK 10/M04 Q1023 NOSIG=
 METAR LZZI 090630Z 08006KT CAVOK 05/M01 Q1024=
 

09.04.2020 - 07:00 UTC

METAR LZMC 090700Z 28002KT CAVOK 10/M03 Q1023=
 METAR LZPW 090700Z 21002KT CAVOK 10/M03 Q1023=
 
načítavam...